Observations for LUTON AIRPORT, United Kingdom (EGGW)

EGGW 220520Z AUTO 15004KT 0500 R26/1200 FG OVC002 16/16 Q1020   
EGGW 220450Z AUTO 15005KT 0650 R26/P1500 FG VV/// 16/16 Q1020   
EGGW 220420Z AUTO 14004KT 0300 R26/0800 FG VV/// 16/16 Q1020
EGGW 220350Z AUTO 14004KT 0250 R26/1100 FG VV/// 16/16 Q1020
EGGW 220320Z AUTO 13004KT 0700 R26/P1500 FG OVC001 16/16 Q1020  
EGGW 220250Z AUTO 13005KT 1800 BR OVC002 16/16 Q1020
EGGW 220220Z AUTO 14004KT 2600 BR OVC003 16/16 Q1020
EGGW 220150Z AUTO 13004KT 4000 BR OVC004 16/16 Q1020
EGGW 220120Z AUTO 12004KT 5000 BR OVC004 16/16 Q1020
EGGW 220050Z AUTO 13003KT 5000 BR OVC004 16/16 Q1021
EGGW 220020Z AUTO 13005KT 5000 BR OVC004 16/16 Q1021
EGGW 212350Z AUTO 14004KT 6000 OVC004 16/16 Q1021   
EGGW 212320Z AUTO 14004KT 6000 OVC006 16/16 Q1021   
EGGW 212250Z AUTO 14005KT 8000 SCT008 BKN028 16/16 Q1021
EGGW 212220Z AUTO 16004KT 9000 FEW010 SCT034 16/16 Q1021
EGGW 212150Z AUTO 16005KT 9000 FEW011 SCT037 16/16 Q1021
EGGW 212120Z AUTO 14004KT 9999 SCT012 BKN034 16/16 Q1021
EGGW 212050Z AUTO 14005KT 9999 FEW034 OVC047 16/16 Q1021
EGGW 212020Z AUTO 12003KT 9999 SCT011 OVC048 16/16 Q1021
EGGW 211950Z AUTO 13004KT 9999 OVC011 16/16 Q1021   
EGGW 211920Z 14005KT 9999 OVC010 17/16 Q1021
EGGW 211850Z AUTO 14004KT 9999 OVC011 17/17 Q1021   
EGGW 211820Z AUTO 14003KT 9999 OVC011 17/17 Q1021   
EGGW 211750Z AUTO 17003KT 9999 OVC010 17/16 Q1021   
EGGW 211720Z AUTO 15004KT 9999 OVC010 17/16 Q1021   
EGGW 211650Z 14005KT 9999 SCT009 BKN013 OVC021 17/16 Q1021  
EGGW 211620Z AUTO 15005KT 9999 BKN009 OVC020 17/17 Q1021
EGGW 211550Z AUTO 14004KT 110V170 9999 SCT008 BKN012 OVC016 17/17 Q1021 
EGGW 211520Z AUTO 15004KT 9999 SCT006 BKN011 OVC017 17/17 Q1021 
EGGW 211450Z AUTO 13007KT 9999 BKN005 OVC011 16/16 Q1021
EGGW 211420Z AUTO 14006KT 110V170 9999 BKN004 OVC011 16/16 Q1021
EGGW 211350Z AUTO 14007KT 9999 BKN005 OVC009 16/16 Q1021
EGGW 211320Z AUTO 13007KT 9999 OVC006 16/16 Q1021   
EGGW 211250Z AUTO 14006KT 9999 OVC005 16/16 Q1021   
EGGW 211220Z AUTO 12007KT 9999 OVC006 16/16 Q1021   
EGGW 211150Z AUTO 13006KT 9999 OVC004 16/16 Q1022   
EGGW 211120Z AUTO 13006KT 110V170 9999 OVC005 16/16 Q1022   
EGGW 211050Z AUTO 13006KT 9999 BKN004 OVC008 15/15 Q1022
EGGW 211020Z AUTO 14006KT 9999 BKN004 OVC007 15/15 Q1022
EGGW 210950Z AUTO 13007KT 7000 BKN004 OVC008 15/15 Q1022
EGGW 210920Z AUTO 13007KT 4500 BR BKN003 OVC007 15/15 Q1022 
EGGW 210850Z AUTO 13006KT 3700 BR BKN003 OVC007 14/14 Q1022 
EGGW 210820Z AUTO 12007KT 4300 BR OVC002 14/14 Q1021
EGGW 210750Z AUTO 12007KT 2700 BR OVC002 14/14 Q1021
EGGW 210720Z AUTO 12007KT 2600 BR OVC002 14/14 Q1021
EGGW 210650Z AUTO 12006KT 2100 BR OVC002 13/13 Q1021
EGGW 210620Z AUTO 12008KT 2600 BR OVC002 13/13 Q1021
EGGW 210550Z AUTO 12007KT 3300 BR OVC002 13/13 Q1021
EGGW 210520Z AUTO 12008KT 2400 -DZ OVC002 13/13 Q1021 REDZ  
EGGW 210450Z AUTO 12007KT 2200 DZ OVC002 13/13 Q1021 RERA